Time;durP1;ratioP1;P1;durP2;ratioP2;P2;SDS_P1;SDS_P2;PMS_P1;PMS_P2;Temp;Humidity;BMP_temperature;BMP_pressure;BME280_temperature;BME280_humidity;BME280_pressure;Samples;Min_cycle;Max_cycle;Signal;HPM_P1;HPM_P2
2023/05/25 00:01:35;;;;;;;56.67;22.70;;;;;;;;;;5003585;28;20141;-68
2023/05/25 00:04:02;;;;;;;48.25;21.88;;;;;;;;;;5007422;28;20042;-71
2023/05/25 00:06:30;;;;;;;58.40;23.52;;;;;;;;;;5005763;28;20070;-68
2023/05/25 00:08:56;;;;;;;64.60;23.23;;;;;;;;;;5003386;28;20103;-67
2023/05/25 00:11:23;;;;;;;48.90;21.40;;;;;;;;;;5002641;28;20076;-68
2023/05/25 00:13:50;;;;;;;48.15;20.88;;;;;;;;;;4991910;28;20101;-69
2023/05/25 00:16:17;;;;;;;36.85;19.98;;;;;;;;;;5000137;28;20105;-67
2023/05/25 00:18:44;;;;;;;53.28;23.08;;;;;;;;;;4995103;28;20045;-66
2023/05/25 00:21:11;;;;;;;69.95;23.05;;;;;;;;;;4993674;28;20050;-69
2023/05/25 00:23:37;;;;;;;76.05;24.35;;;;;;;;;;4992994;28;20061;-67
2023/05/25 00:26:04;;;;;;;51.22;22.15;;;;;;;;;;4989445;28;20499;-68
2023/05/25 00:28:31;;;;;;;60.80;22.92;;;;;;;;;;4997131;28;20499;-68
2023/05/25 00:30:57;;;;;;;60.45;23.02;;;;;;;;;;4986056;28;20048;-65
2023/05/25 00:33:24;;;;;;;60.70;25.17;;;;;;;;;;5003764;28;20483;-70
2023/05/25 00:35:52;;;;;;;69.60;23.65;;;;;;;;;;5003492;28;20046;-66
2023/05/25 00:38:20;;;;;;;60.85;23.65;;;;;;;;;;4986620;28;20046;-69
2023/05/25 00:40:46;;;;;;;52.72;23.98;;;;;;;;;;4986454;28;20141;-68
2023/05/25 00:43:13;;;;;;;56.65;23.95;;;;;;;;;;4982774;28;20069;-70
2023/05/25 00:45:40;;;;;;;60.15;23.67;;;;;;;;;;5005996;28;20045;-66
2023/05/25 00:48:08;;;;;;;70.88;26.13;;;;;;;;;;4999290;28;20050;-67
2023/05/25 00:50:37;;;;;;;79.00;26.02;;;;;;;;;;4996176;28;20483;-70
2023/05/25 00:53:05;;;;;;;59.45;24.92;;;;;;;;;;4991922;28;20104;-66
2023/05/25 00:55:38;;;;;;;66.55;24.00;;;;;;;;;;5004963;28;20046;-68
2023/05/25 00:58:06;;;;;;;53.92;23.58;;;;;;;;;;5001642;28;20057;-68
2023/05/25 01:00:36;;;;;;;57.30;24.55;;;;;;;;;;4985893;28;20043;-68
2023/05/25 01:03:06;;;;;;;68.95;26.17;;;;;;;;;;4992801;28;20050;-68
2023/05/25 01:05:37;;;;;;;81.53;25.17;;;;;;;;;;4985071;28;20050;-69
2023/05/25 01:08:05;;;;;;;59.55;23.77;;;;;;;;;;5003135;28;20066;-68
2023/05/25 01:10:32;;;;;;;66.55;26.00;;;;;;;;;;5005391;28;20070;-71
2023/05/25 01:13:00;;;;;;;70.78;25.40;;;;;;;;;;4968865;28;20125;-68
2023/05/25 01:15:28;;;;;;;59.65;24.88;;;;;;;;;;4984934;28;20129;-69
2023/05/25 01:17:58;;;;;;;71.82;26.23;;;;;;;;;;4985113;28;20509;-67
2023/05/25 01:20:28;;;;;;;58.40;25.15;;;;;;;;;;4994188;28;20045;-67
2023/05/25 01:23:00;;;;;;;66.18;25.70;;;;;;;;;;4997547;28;20096;-67
2023/05/25 01:25:35;;;;;;;66.45;25.65;;;;;;;;;;4969643;28;20142;-66
2023/05/25 01:28:08;;;;;;;61.45;25.52;;;;;;;;;;4987450;28;20041;-68
2023/05/25 01:30:35;;;;;;;74.07;25.60;;;;;;;;;;4985401;28;20046;-68
2023/05/25 01:33:02;;;;;;;64.10;26.25;;;;;;;;;;5006046;28;20133;-68
2023/05/25 01:35:30;;;;;;;57.28;25.08;;;;;;;;;;5003772;28;20042;-69
2023/05/25 01:37:57;;;;;;;54.28;25.05;;;;;;;;;;4991199;28;20451;-65
2023/05/25 01:40:23;;;;;;;61.92;25.70;;;;;;;;;;4991254;28;20411;-68
2023/05/25 01:42:50;;;;;;;77.88;27.70;;;;;;;;;;4986799;28;20046;-67
2023/05/25 01:45:17;;;;;;;67.50;28.38;;;;;;;;;;5002022;28;20455;-67
2023/05/25 01:47:49;;;;;;;97.38;27.95;;;;;;;;;;4998572;28;20084;-67
2023/05/25 01:50:16;;;;;;;66.88;27.27;;;;;;;;;;5000713;28;20046;-67
2023/05/25 01:52:46;;;;;;;79.55;29.13;;;;;;;;;;5005636;28;20069;-67
2023/05/25 01:55:17;;;;;;;80.32;28.38;;;;;;;;;;4994169;28;20073;-66
2023/05/25 01:57:45;;;;;;;79.05;28.73;;;;;;;;;;4980488;28;20050;-66
2023/05/25 02:00:12;;;;;;;79.00;30.33;;;;;;;;;;4985477;28;20038;-68
2023/05/25 02:02:40;;;;;;;106.10;32.58;;;;;;;;;;4989540;22;20042;-69
2023/05/25 02:05:08;;;;;;;72.07;32.13;;;;;;;;;;5004443;28;20046;-73
2023/05/25 02:07:35;;;;;;;69.15;32.03;;;;;;;;;;4988984;28;20057;-66
2023/05/25 02:10:02;;;;;;;87.80;34.67;;;;;;;;;;4990759;28;20537;-69
2023/05/25 02:12:28;;;;;;;86.88;32.20;;;;;;;;;;4993655;28;20045;-66
2023/05/25 02:14:55;;;;;;;77.03;30.98;;;;;;;;;;5005615;28;20479;-67
2023/05/25 02:17:27;;;;;;;77.95;31.70;;;;;;;;;;5007543;28;20118;-69
2023/05/25 02:19:54;;;;;;;79.13;31.40;;;;;;;;;;4988447;28;20130;-66
2023/05/25 02:22:22;;;;;;;83.13;33.58;;;;;;;;;;5000103;28;20061;-66
2023/05/25 02:24:49;;;;;;;86.13;33.30;;;;;;;;;;5008982;28;20038;-67
2023/05/25 02:27:15;;;;;;;93.53;33.42;;;;;;;;;;4990300;28;20050;-67
2023/05/25 02:29:42;;;;;;;106.38;35.28;;;;;;;;;;4991224;28;20050;-69
2023/05/25 02:32:09;;;;;;;85.95;34.00;;;;;;;;;;5011462;28;20042;-68
2023/05/25 02:34:36;;;;;;;95.53;34.00;;;;;;;;;;4992642;28;20061;-67
2023/05/25 02:37:03;;;;;;;80.88;34.33;;;;;;;;;;5006525;28;20045;-70
2023/05/25 02:39:29;;;;;;;75.80;32.05;;;;;;;;;;5010379;28;20052;-68
2023/05/25 02:41:58;;;;;;;86.20;34.55;;;;;;;;;;4991035;28;20047;-66
2023/05/25 02:44:25;;;;;;;90.45;33.78;;;;;;;;;;4988928;28;20054;-67
2023/05/25 02:46:52;;;;;;;94.15;34.65;;;;;;;;;;5008279;28;20467;-67
2023/05/25 02:49:18;;;;;;;101.03;35.42;;;;;;;;;;5007818;28;20077;-66
2023/05/25 02:51:46;;;;;;;102.70;35.88;;;;;;;;;;4992848;28;20415;-71
2023/05/25 02:54:13;;;;;;;83.80;34.67;;;;;;;;;;4995269;28;20045;-74
2023/05/25 02:56:41;;;;;;;113.43;36.13;;;;;;;;;;5007386;28;20049;-67
2023/05/25 02:59:08;;;;;;;87.88;32.63;;;;;;;;;;5013075;28;20462;-67
2023/05/25 03:01:35;;;;;;;93.93;36.45;;;;;;;;;;4988380;28;20081;-69
2023/05/25 03:04:02;;;;;;;92.55;35.30;;;;;;;;;;5006359;28;20435;-70
2023/05/25 03:06:35;;;;;;;107.82;36.97;;;;;;;;;;5006800;28;20042;-70
2023/05/25 03:09:12;;;;;;;95.60;37.58;;;;;;;;;;4993990;28;20129;-70
2023/05/25 03:11:39;;;;;;;116.15;37.38;;;;;;;;;;5013081;28;20087;-69
2023/05/25 03:14:09;;;;;;;95.63;36.50;;;;;;;;;;4981580;28;20054;-67
2023/05/25 03:16:37;;;;;;;116.65;39.42;;;;;;;;;;5005991;28;20056;-68
2023/05/25 03:19:05;;;;;;;99.72;34.53;;;;;;;;;;4994459;28;20495;-70
2023/05/25 03:21:34;;;;;;;93.25;33.70;;;;;;;;;;4994294;28;20448;-69
2023/05/25 03:24:00;;;;;;;100.82;37.38;;;;;;;;;;4988422;28;20052;-68
2023/05/25 03:26:29;;;;;;;101.88;37.42;;;;;;;;;;4995538;28;20089;-69
2023/05/25 03:28:56;;;;;;;93.45;38.92;;;;;;;;;;4995657;28;20112;-69
2023/05/25 03:31:23;;;;;;;104.78;37.60;;;;;;;;;;5007097;28;20133;-69
2023/05/25 03:33:50;;;;;;;99.95;37.00;;;;;;;;;;4992160;28;20072;-72
2023/05/25 03:36:18;;;;;;;244.05;45.15;;;;;;;;;;4993829;28;20053;-67
2023/05/25 03:38:45;;;;;;;126.43;40.35;;;;;;;;;;4993454;28;20042;-70
2023/05/25 03:41:12;;;;;;;90.30;37.67;;;;;;;;;;5007499;28;20483;-68
2023/05/25 03:43:39;;;;;;;120.65;39.60;;;;;;;;;;5011062;28;20530;-67
2023/05/25 03:46:07;;;;;;;95.93;38.08;;;;;;;;;;4992266;28;20077;-70
2023/05/25 03:48:34;;;;;;;96.30;37.75;;;;;;;;;;4995670;28;20403;-66
2023/05/25 03:51:01;;;;;;;105.70;38.22;;;;;;;;;;4993670;28;20046;-70
2023/05/25 03:53:27;;;;;;;110.82;40.10;;;;;;;;;;5003480;28;20054;-65
2023/05/25 03:55:54;;;;;;;103.28;37.85;;;;;;;;;;5005374;28;20049;-68
2023/05/25 03:58:21;;;;;;;100.85;39.35;;;;;;;;;;4991258;28;20046;-68
2023/05/25 04:00:49;;;;;;;117.82;41.08;;;;;;;;;;5004657;28;20042;-72
2023/05/25 04:03:15;;;;;;;114.07;42.15;;;;;;;;;;4993596;28;20562;-68
2023/05/25 04:05:44;;;;;;;130.90;40.70;;;;;;;;;;4987196;28;20088;-74
2023/05/25 04:08:21;;;;;;;110.13;39.47;;;;;;;;;;4992388;28;20488;-73
2023/05/25 04:10:48;;;;;;;111.15;40.03;;;;;;;;;;4993489;28;20149;-70
2023/05/25 04:13:15;;;;;;;89.60;37.20;;;;;;;;;;4995076;28;20554;-73
2023/05/25 04:15:41;;;;;;;112.72;40.08;;;;;;;;;;5011192;28;20442;-69
2023/05/25 04:18:18;;;;;;;100.85;37.80;;;;;;;;;;4990114;28;20515;-66
2023/05/25 04:20:46;;;;;;;136.18;42.95;;;;;;;;;;5009930;28;20057;-67
2023/05/25 04:23:14;;;;;;;270.30;48.58;;;;;;;;;;4991955;28;20177;-70
2023/05/25 04:25:44;;;;;;;109.60;39.17;;;;;;;;;;4988563;28;20137;-70
2023/05/25 04:28:11;;;;;;;105.85;38.65;;;;;;;;;;4978505;28;20492;-67
2023/05/25 04:30:56;;;;;;;101.45;37.60;;;;;;;;;;4991749;28;20049;-65
2023/05/25 04:33:41;;;;;;;102.82;39.00;;;;;;;;;;4994264;28;20164;-66
2023/05/25 04:36:21;;;;;;;120.13;37.92;;;;;;;;;;4991110;28;20049;-71
2023/05/25 04:38:53;;;;;;;121.18;39.80;;;;;;;;;;5010468;28;20519;-65
2023/05/25 04:41:21;;;;;;;247.23;46.10;;;;;;;;;;4978220;28;20081;-66
2023/05/25 04:43:52;;;;;;;96.72;37.67;;;;;;;;;;4992029;28;20060;-66
2023/05/25 04:46:37;;;;;;;83.57;37.83;;;;;;;;;;4986678;28;20062;-65
2023/05/25 04:49:09;;;;;;;93.50;40.03;;;;;;;;;;4989506;28;20052;-65
2023/05/25 04:51:36;;;;;;;103.90;41.55;;;;;;;;;;4988768;28;20093;-68
2023/05/25 04:54:03;;;;;;;143.48;39.33;;;;;;;;;;5006785;28;20282;-66
2023/05/25 04:56:31;;;;;;;92.47;37.03;;;;;;;;;;5010385;28;20046;-69
2023/05/25 04:58:58;;;;;;;90.40;38.90;;;;;;;;;;4987894;28;20046;-68
2023/05/25 05:01:25;;;;;;;93.70;40.15;;;;;;;;;;5004290;28;20129;-66
2023/05/25 05:03:55;;;;;;;100.97;37.88;;;;;;;;;;4991187;28;20065;-68
2023/05/25 05:06:24;;;;;;;92.60;36.28;;;;;;;;;;5011061;28;20044;-66
2023/05/25 05:08:51;;;;;;;238.75;46.15;;;;;;;;;;4992339;28;20072;-75
2023/05/25 05:11:19;;;;;;;83.32;36.42;;;;;;;;;;4990147;28;20470;-67
2023/05/25 05:13:45;;;;;;;90.72;34.45;;;;;;;;;;4977844;28;20068;-71
2023/05/25 05:16:12;;;;;;;87.07;35.17;;;;;;;;;;4990375;28;20058;-69
2023/05/25 05:18:39;;;;;;;179.75;39.85;;;;;;;;;;5004918;28;20121;-68
2023/05/25 05:21:06;;;;;;;102.38;35.53;;;;;;;;;;5002320;28;20100;-65
2023/05/25 05:23:34;;;;;;;84.47;35.20;;;;;;;;;;4977842;28;20096;-66
2023/05/25 05:26:03;;;;;;;70.47;33.97;;;;;;;;;;4992451;28;20050;-65
2023/05/25 05:28:31;;;;;;;76.25;34.88;;;;;;;;;;4999891;28;20058;-65
2023/05/25 05:30:57;;;;;;;99.50;36.83;;;;;;;;;;4985406;28;20388;-67
2023/05/25 05:33:25;;;;;;;166.38;41.28;;;;;;;;;;4990137;28;20053;-68
2023/05/25 05:35:53;;;;;;;161.52;38.40;;;;;;;;;;4975093;28;20410;-69
2023/05/25 05:38:22;;;;;;;100.03;33.40;;;;;;;;;;4993775;28;20057;-68
2023/05/25 05:40:49;;;;;;;115.57;38.20;;;;;;;;;;4989193;28;20601;-67
2023/05/25 05:43:21;;;;;;;98.15;35.05;;;;;;;;;;5003656;28;20053;-67
2023/05/25 05:45:48;;;;;;;148.88;39.35;;;;;;;;;;4991229;28;20045;-65
2023/05/25 05:48:15;;;;;;;126.28;36.28;;;;;;;;;;4989220;28;20543;-65
2023/05/25 05:50:43;;;;;;;266.77;43.92;;;;;;;;;;5001296;28;20054;-68
2023/05/25 05:53:11;;;;;;;456.92;56.10;;;;;;;;;;4993468;28;20466;-67
2023/05/25 05:55:38;;;;;;;99.07;35.38;;;;;;;;;;4990645;28;20444;-68
2023/05/25 05:58:05;;;;;;;188.27;38.90;;;;;;;;;;4992666;28;20050;-68
2023/05/25 06:00:31;;;;;;;87.55;35.72;;;;;;;;;;4982680;28;20038;-66
2023/05/25 06:02:59;;;;;;;118.40;36.55;;;;;;;;;;4992720;28;20148;-68
2023/05/25 06:05:28;;;;;;;70.20;33.92;;;;;;;;;;4990817;28;20050;-65
2023/05/25 06:07:56;;;;;;;127.80;37.25;;;;;;;;;;4993384;28;20068;-70
2023/05/25 06:10:22;;;;;;;88.25;35.53;;;;;;;;;;5005889;28;20046;-68
2023/05/25 06:12:50;;;;;;;101.28;33.45;;;;;;;;;;5007539;28;20049;-69
2023/05/25 06:15:16;;;;;;;96.35;35.22;;;;;;;;;;4990210;28;20096;-66
2023/05/25 06:17:45;;;;;;;345.02;49.67;;;;;;;;;;4990551;28;20081;-70
2023/05/25 06:20:13;;;;;;;88.72;34.97;;;;;;;;;;4992631;28;20045;-68
2023/05/25 06:22:41;;;;;;;74.70;32.17;;;;;;;;;;5001592;28;20042;-69
2023/05/25 06:25:09;;;;;;;68.72;32.15;;;;;;;;;;5011066;28;20089;-70
2023/05/25 06:27:36;;;;;;;93.50;33.60;;;;;;;;;;5009188;28;20065;-69
2023/05/25 06:30:03;;;;;;;133.85;36.35;;;;;;;;;;4995477;28;20049;-67
2023/05/25 06:32:29;;;;;;;76.47;33.50;;;;;;;;;;5014380;28;20506;-71
2023/05/25 06:34:56;;;;;;;85.07;37.20;;;;;;;;;;4996820;28;20092;-70
2023/05/25 06:37:23;;;;;;;592.65;66.93;;;;;;;;;;4990962;28;20042;-67
2023/05/25 06:39:50;;;;;;;146.85;38.78;;;;;;;;;;4995184;28;20045;-68
2023/05/25 06:42:17;;;;;;;210.30;41.97;;;;;;;;;;4991853;28;20046;-67
2023/05/25 06:44:51;;;;;;;401.30;58.72;;;;;;;;;;4995479;28;20057;-66
2023/05/25 06:47:18;;;;;;;185.95;39.30;;;;;;;;;;4984546;28;20066;-68
2023/05/25 06:49:45;;;;;;;88.28;34.75;;;;;;;;;;4989851;28;20075;-68
2023/05/25 06:52:12;;;;;;;143.98;39.25;;;;;;;;;;5009956;28;20050;-69
2023/05/25 06:54:38;;;;;;;76.07;35.42;;;;;;;;;;5012533;28;20042;-67
2023/05/25 06:57:05;;;;;;;85.57;34.80;;;;;;;;;;5003746;28;20062;-67
2023/05/25 06:59:32;;;;;;;76.60;33.67;;;;;;;;;;5011217;28;20054;-66
2023/05/25 07:01:59;;;;;;;213.77;40.95;;;;;;;;;;5005496;28;20496;-66
2023/05/25 07:04:27;;;;;;;95.68;33.28;;;;;;;;;;5012356;28;20057;-68
2023/05/25 07:06:54;;;;;;;91.80;33.03;;;;;;;;;;5007025;28;20073;-65
2023/05/25 07:09:21;;;;;;;85.47;32.80;;;;;;;;;;5012733;28;20049;-70
2023/05/25 07:11:48;;;;;;;107.90;33.45;;;;;;;;;;4991783;28;20054;-66
2023/05/25 07:14:16;;;;;;;117.40;35.67;;;;;;;;;;5008069;28;20046;-66
2023/05/25 07:16:46;;;;;;;189.98;39.80;;;;;;;;;;4991241;28;20050;-65
2023/05/25 07:19:12;;;;;;;126.13;34.40;;;;;;;;;;4992010;28;20492;-70
2023/05/25 07:21:39;;;;;;;89.55;34.10;;;;;;;;;;5009271;28;20050;-70
2023/05/25 07:24:06;;;;;;;82.60;32.85;;;;;;;;;;4993614;28;20432;-66
2023/05/25 07:26:34;;;;;;;111.90;34.65;;;;;;;;;;5010217;28;20042;-68
2023/05/25 07:29:01;;;;;;;357.42;53.28;;;;;;;;;;5011216;28;20052;-69
2023/05/25 07:31:27;;;;;;;79.35;32.67;;;;;;;;;;4991840;28;20046;-65
2023/05/25 07:33:54;;;;;;;90.78;33.45;;;;;;;;;;4981791;28;20069;-66
2023/05/25 07:36:23;;;;;;;97.05;33.67;;;;;;;;;;4995177;28;20399;-73
2023/05/25 07:38:50;;;;;;;110.85;33.95;;;;;;;;;;4994735;28;20044;-66
2023/05/25 07:41:17;;;;;;;69.00;29.58;;;;;;;;;;5008319;28;20053;-65
2023/05/25 07:43:44;;;;;;;99.10;30.63;;;;;;;;;;4995537;28;20492;-66
2023/05/25 07:46:11;;;;;;;63.60;28.80;;;;;;;;;;4990085;28;20053;-66
2023/05/25 07:48:38;;;;;;;67.45;29.40;;;;;;;;;;5010944;28;20125;-67
2023/05/25 07:51:04;;;;;;;70.13;29.77;;;;;;;;;;5007791;28;20476;-66
2023/05/25 07:53:31;;;;;;;70.63;31.38;;;;;;;;;;5013730;28;20049;-65
2023/05/25 07:55:58;;;;;;;135.75;34.15;;;;;;;;;;5013108;28;20078;-66
2023/05/25 07:58:24;;;;;;;74.93;30.20;;;;;;;;;;5008212;28;20042;-67
2023/05/25 08:00:51;;;;;;;85.97;29.65;;;;;;;;;;5002798;28;20046;-67
2023/05/25 08:03:19;;;;;;;86.15;30.25;;;;;;;;;;5007032;28;20058;-66
2023/05/25 08:05:57;;;;;;;185.60;38.63;;;;;;;;;;5010508;28;20045;-67
2023/05/25 08:08:24;;;;;;;89.72;31.02;;;;;;;;;;5011003;28;20539;-67
2023/05/25 08:10:51;;;;;;;99.20;32.85;;;;;;;;;;4994353;28;20042;-65
2023/05/25 08:13:18;;;;;;;83.40;30.38;;;;;;;;;;4977931;28;20069;-66
2023/05/25 08:15:44;;;;;;;84.10;31.50;;;;;;;;;;5009677;28;20042;-66
2023/05/25 08:18:15;;;;;;;234.50;39.95;;;;;;;;;;5008942;28;20041;-65
2023/05/25 08:20:42;;;;;;;82.18;32.78;;;;;;;;;;5008207;28;20069;-74
2023/05/25 08:23:09;;;;;;;69.45;30.80;;;;;;;;;;5008969;28;20486;-65
2023/05/25 08:25:36;;;;;;;86.20;32.33;;;;;;;;;;4993848;28;20051;-71
2023/05/25 08:28:03;;;;;;;181.40;39.45;;;;;;;;;;4993673;28;20068;-65
2023/05/25 08:30:31;;;;;;;79.20;31.00;;;;;;;;;;4983794;28;20511;-70
2023/05/25 08:32:58;;;;;;;129.00;35.30;;;;;;;;;;5001066;28;20113;-67
2023/05/25 08:35:25;;;;;;;63.15;30.77;;;;;;;;;;4993094;28;20049;-67
2023/05/25 08:37:52;;;;;;;172.93;38.45;;;;;;;;;;5001279;28;20444;-66
2023/05/25 08:40:21;;;;;;;102.68;31.98;;;;;;;;;;4991863;28;20403;-67
2023/05/25 08:42:48;;;;;;;70.40;28.67;;;;;;;;;;4987886;28;20415;-68
2023/05/25 08:45:15;;;;;;;109.70;31.05;;;;;;;;;;5009475;28;20037;-66
2023/05/25 08:48:00;;;;;;;88.45;31.63;;;;;;;;;;5007480;28;20839;-67
2023/05/25 08:50:29;;;;;;;518.40;62.55;;;;;;;;;;5010645;28;20522;-66
2023/05/25 08:53:00;;;;;;;113.90;31.55;;;;;;;;;;5005689;28;20042;-66
2023/05/25 08:55:29;;;;;;;60.13;27.55;;;;;;;;;;5007076;28;20085;-72
2023/05/25 08:58:04;;;;;;;418.77;49.80;;;;;;;;;;4986111;28;20053;-66
2023/05/25 09:00:33;;;;;;;63.60;27.52;;;;;;;;;;5008240;28;20759;-64
2023/05/25 09:03:12;;;;;;;73.80;27.45;;;;;;;;;;4990943;28;20388;-67
2023/05/25 09:05:39;;;;;;;149.27;33.25;;;;;;;;;;5009606;28;20121;-69
2023/05/25 09:08:07;;;;;;;63.60;25.80;;;;;;;;;;4973508;28;20192;-66
2023/05/25 09:10:35;;;;;;;57.47;26.48;;;;;;;;;;5003330;28;20046;-68
2023/05/25 09:13:02;;;;;;;125.68;30.63;;;;;;;;;;5009184;28;20042;-67
2023/05/25 09:15:47;;;;;;;60.95;25.70;;;;;;;;;;4991259;28;20050;-67
2023/05/25 09:18:14;;;;;;;422.02;48.80;;;;;;;;;;5008103;28;20507;-66
2023/05/25 09:20:41;;;;;;;78.35;28.48;;;;;;;;;;4988369;28;20054;-66
2023/05/25 09:23:13;;;;;;;60.28;26.42;;;;;;;;;;5006165;28;20073;-66
2023/05/25 09:25:40;;;;;;;77.15;27.15;;;;;;;;;;5010223;28;20463;-68
2023/05/25 09:28:11;;;;;;;107.88;27.95;;;;;;;;;;5005786;28;20482;-66
2023/05/25 09:30:41;;;;;;;423.58;45.55;;;;;;;;;;5010438;28;20514;-66
2023/05/25 09:33:09;;;;;;;64.78;25.38;;;;;;;;;;4990002;28;20120;-72
2023/05/25 09:35:37;;;;;;;65.22;24.30;;;;;;;;;;5001206;28;20049;-66
2023/05/25 09:38:04;;;;;;;82.65;24.38;;;;;;;;;;4993132;28;20069;-73
2023/05/25 09:40:36;;;;;;;49.50;21.48;;;;;;;;;;4978146;28;20118;-66
2023/05/25 09:43:04;;;;;;;50.95;23.38;;;;;;;;;;4981845;28;20053;-72
2023/05/25 09:45:30;;;;;;;148.50;25.95;;;;;;;;;;5012259;28;20046;-66
2023/05/25 09:47:58;;;;;;;155.95;26.60;;;;;;;;;;5007808;28;20045;-66
2023/05/25 09:50:28;;;;;;;219.38;29.00;;;;;;;;;;4997131;28;20467;-67
2023/05/25 09:52:58;;;;;;;88.10;22.48;;;;;;;;;;5013425;28;20049;-66
2023/05/25 09:55:28;;;;;;;56.38;20.63;;;;;;;;;;4980579;28;20100;-66
2023/05/25 09:58:15;;;;;;;162.75;25.35;;;;;;;;;;5015607;28;20030;-67
2023/05/25 10:00:42;;;;;;;45.83;18.73;;;;;;;;;;4992599;28;20054;-69
2023/05/25 10:03:13;;;;;;;141.07;26.73;;;;;;;;;;5011693;28;20050;-66
2023/05/25 10:05:44;;;;;;;81.72;20.58;;;;;;;;;;4998060;28;20057;-77
2023/05/25 10:08:11;;;;;;;59.00;19.85;;;;;;;;;;4998849;28;20046;-65
2023/05/25 10:10:39;;;;;;;42.17;18.10;;;;;;;;;;5014203;28;20100;-69
2023/05/25 10:13:07;;;;;;;807.03;75.45;;;;;;;;;;5011654;28;20046;-68
2023/05/25 10:15:36;;;;;;;59.72;19.55;;;;;;;;;;4996621;28;20373;-68
2023/05/25 10:18:05;;;;;;;50.85;17.98;;;;;;;;;;4981134;28;20042;-70
2023/05/25 10:20:35;;;;;;;44.15;17.63;;;;;;;;;;4998267;28;20054;-64
2023/05/25 10:23:08;;;;;;;55.55;18.42;;;;;;;;;;5013532;28;20132;-66
2023/05/25 10:25:47;;;;;;;192.82;25.08;;;;;;;;;;4999322;28;20488;-65
2023/05/25 10:28:17;;;;;;;712.67;60.67;;;;;;;;;;4996130;28;20100;-67
2023/05/25 10:30:45;;;;;;;74.70;17.67;;;;;;;;;;5015712;28;20115;-70
2023/05/25 10:33:12;;;;;;;50.03;17.02;;;;;;;;;;5015994;28;20042;-67
2023/05/25 10:35:42;;;;;;;40.47;15.00;;;;;;;;;;5010248;28;20132;-72
2023/05/25 10:38:30;;;;;;;31.90;14.82;;;;;;;;;;5010591;28;20038;-72
2023/05/25 10:40:58;;;;;;;49.42;15.88;;;;;;;;;;5006037;28;20046;-67
2023/05/25 10:43:25;;;;;;;43.22;15.15;;;;;;;;;;4990205;28;20052;-68
2023/05/25 10:45:53;;;;;;;76.45;17.23;;;;;;;;;;5012558;28;20046;-69
2023/05/25 10:48:21;;;;;;;63.38;15.77;;;;;;;;;;4989986;28;20137;-66
2023/05/25 10:50:49;;;;;;;78.03;16.90;;;;;;;;;;4993241;28;20129;-70
2023/05/25 10:53:19;;;;;;;95.10;16.00;;;;;;;;;;4996151;28;20046;-70
2023/05/25 10:55:46;;;;;;;57.83;14.57;;;;;;;;;;5014664;28;20038;-69
2023/05/25 10:58:17;;;;;;;56.78;15.05;;;;;;;;;;4994683;28;20050;-65
2023/05/25 11:01:00;;;;;;;37.35;13.68;;;;;;;;;;4981730;28;20041;-66
2023/05/25 11:03:46;;;;;;;46.25;13.55;;;;;;;;;;4990075;28;20050;-67
2023/05/25 11:06:14;;;;;;;70.70;15.30;;;;;;;;;;5012119;28;20052;-68
2023/05/25 11:08:54;;;;;;;37.55;13.68;;;;;;;;;;5013275;28;20096;-65
2023/05/25 11:11:41;;;;;;;30.25;12.32;;;;;;;;;;4997741;28;20045;-67
2023/05/25 11:14:30;;;;;;;191.52;23.33;;;;;;;;;;5012262;28;20046;-66
2023/05/25 11:17:03;;;;;;;46.53;12.93;;;;;;;;;;4988551;28;20042;-65
2023/05/25 11:19:42;;;;;;;249.85;23.45;;;;;;;;;;4994712;28;20041;-64
2023/05/25 11:22:15;;;;;;;39.42;12.43;;;;;;;;;;5012139;28;20050;-65
2023/05/25 11:24:45;;;;;;;67.55;13.68;;;;;;;;;;4998077;28;20066;-65
2023/05/25 11:27:14;;;;;;;51.50;12.80;;;;;;;;;;5015105;28;20069;-64
2023/05/25 11:29:48;;;;;;;42.22;13.25;;;;;;;;;;5012011;28;20054;-68
2023/05/25 11:32:19;;;;;;;54.67;12.93;;;;;;;;;;4992281;28;20052;-68
2023/05/25 11:34:47;;;;;;;60.17;13.93;;;;;;;;;;5012880;28;20049;-68
2023/05/25 11:37:25;;;;;;;51.50;13.88;;;;;;;;;;5010722;28;20045;-67
2023/05/25 11:39:59;;;;;;;56.25;15.30;;;;;;;;;;5006153;28;20045;-67
2023/05/25 11:42:26;;;;;;;451.77;42.03;;;;;;;;;;4996112;28;20042;-65
2023/05/25 11:44:54;;;;;;;108.82;18.02;;;;;;;;;;5013759;28;20096;-65
2023/05/25 11:47:23;;;;;;;51.08;14.82;;;;;;;;;;5009924;28;20054;-64
2023/05/25 11:49:54;;;;;;;41.28;14.07;;;;;;;;;;5010117;28;20042;-67
2023/05/25 11:52:24;;;;;;;35.58;15.25;;;;;;;;;;5012473;28;20046;-66
2023/05/25 11:54:53;;;;;;;64.10;16.65;;;;;;;;;;5008957;28;20069;-69
2023/05/25 11:57:26;;;;;;;303.10;34.07;;;;;;;;;;4991598;28;20049;-66
2023/05/25 11:59:56;;;;;;;170.82;23.60;;;;;;;;;;4999805;28;20042;-67
2023/05/25 12:02:26;;;;;;;72.93;17.80;;;;;;;;;;4980641;28;20054;-69
2023/05/25 12:04:58;;;;;;;116.93;19.60;;;;;;;;;;5009105;28;20050;-66
2023/05/25 12:07:27;;;;;;;488.17;46.35;;;;;;;;;;5012490;28;20125;-67
2023/05/25 12:10:07;;;;;;;64.13;19.02;;;;;;;;;;4993649;28;20049;-67
2023/05/25 12:12:39;;;;;;;45.47;17.50;;;;;;;;;;5010228;28;20050;-66
2023/05/25 12:15:07;;;;;;;626.70;56.58;;;;;;;;;;4986057;28;20112;-68
2023/05/25 12:17:35;;;;;;;55.95;18.42;;;;;;;;;;5012755;28;20045;-66
2023/05/25 12:20:04;;;;;;;53.13;17.75;;;;;;;;;;4995442;28;20145;-66
2023/05/25 12:22:31;;;;;;;51.95;18.33;;;;;;;;;;5007675;28;20045;-70
2023/05/25 12:25:01;;;;;;;464.75;40.33;;;;;;;;;;5010242;28;20137;-68
2023/05/25 12:27:28;;;;;;;76.70;18.95;;;;;;;;;;4984148;28;20088;-71
2023/05/25 12:29:57;;;;;;;439.45;48.38;;;;;;;;;;4994078;28;20145;-69
2023/05/25 12:32:24;;;;;;;38.20;16.75;;;;;;;;;;5010178;28;20053;-68
2023/05/25 12:35:00;;;;;;;65.13;18.95;;;;;;;;;;4998903;28;20046;-68
2023/05/25 12:37:27;;;;;;;71.43;19.67;;;;;;;;;;4990319;28;20047;-66
2023/05/25 12:39:55;;;;;;;49.05;19.40;;;;;;;;;;4990972;28;20109;-66
2023/05/25 12:42:31;;;;;;;58.08;18.02;;;;;;;;;;5004799;28;20042;-67
2023/05/25 12:45:00;;;;;;;159.73;24.75;;;;;;;;;;5011802;28;20037;-66
2023/05/25 12:47:29;;;;;;;120.20;21.35;;;;;;;;;;5002059;28;20042;-67
2023/05/25 12:50:12;;;;;;;73.03;19.23;;;;;;;;;;4991860;28;20459;-71
2023/05/25 12:52:41;;;;;;;56.13;19.30;;;;;;;;;;4990518;28;20464;-67
2023/05/25 12:55:40;;;;;;;669.50;63.90;;;;;;;;;;4980250;28;20038;-68
2023/05/25 12:58:24;;;;;;;144.98;23.60;;;;;;;;;;4912291;29;20135;-70
2023/05/25 13:00:51;;;;;;;66.55;17.40;;;;;;;;;;4927743;29;20126;-67
2023/05/25 13:03:19;;;;;;;106.95;19.15;;;;;;;;;;4927042;29;20064;-68
2023/05/25 13:05:46;;;;;;;62.40;19.08;;;;;;;;;;4916147;29;20043;-68
2023/05/25 13:08:14;;;;;;;402.60;38.53;;;;;;;;;;4927702;29;20075;-68
2023/05/25 13:10:41;;;;;;;79.22;17.88;;;;;;;;;;4927143;29;20047;-66
2023/05/25 13:13:09;;;;;;;47.97;16.10;;;;;;;;;;4927527;28;20049;-67
2023/05/25 13:15:36;;;;;;;57.95;15.95;;;;;;;;;;4950047;28;20051;-70
2023/05/25 13:18:04;;;;;;;107.13;18.45;;;;;;;;;;4949854;28;20142;-69
2023/05/25 13:20:31;;;;;;;228.73;25.20;;;;;;;;;;4947824;28;20114;-67
2023/05/25 13:22:58;;;;;;;62.85;16.85;;;;;;;;;;4947611;28;20094;-68
2023/05/25 13:25:26;;;;;;;82.80;17.80;;;;;;;;;;4946700;28;20039;-65
2023/05/25 13:27:56;;;;;;;44.30;14.93;;;;;;;;;;4944605;28;20167;-64
2023/05/25 13:30:24;;;;;;;64.95;16.63;;;;;;;;;;4933536;28;20043;-65
2023/05/25 13:32:51;;;;;;;63.20;16.00;;;;;;;;;;4946873;28;20604;-68
2023/05/25 13:35:35;;;;;;;49.72;15.30;;;;;;;;;;5008168;28;20077;-67
2023/05/25 13:38:03;;;;;;;74.25;17.08;;;;;;;;;;5006861;28;20045;-65
2023/05/25 13:40:30;;;;;;;210.32;24.23;;;;;;;;;;5009097;28;20381;-65
2023/05/25 13:42:57;;;;;;;71.47;15.18;;;;;;;;;;4991459;28;20141;-65
2023/05/25 13:45:24;;;;;;;262.40;29.65;;;;;;;;;;5008641;28;20064;-65
2023/05/25 13:47:51;;;;;;;71.07;16.15;;;;;;;;;;4990917;28;20077;-70
2023/05/25 13:50:19;;;;;;;224.80;26.83;;;;;;;;;;5004427;28;20420;-69
2023/05/25 13:52:46;;;;;;;144.75;19.23;;;;;;;;;;4990650;28;20391;-67
2023/05/25 13:55:14;;;;;;;69.28;15.27;;;;;;;;;;5008134;28;20152;-67
2023/05/25 13:57:41;;;;;;;253.93;27.02;;;;;;;;;;5002029;28;20077;-67
2023/05/25 14:00:08;;;;;;;52.92;14.50;;;;;;;;;;5010253;28;20052;-68
2023/05/25 14:02:36;;;;;;;96.38;16.70;;;;;;;;;;4998045;28;20085;-69
2023/05/25 14:05:03;;;;;;;96.00;15.45;;;;;;;;;;4972752;28;20053;-68
2023/05/25 14:07:31;;;;;;;53.00;13.05;;;;;;;;;;4990445;28;20050;-68
2023/05/25 14:09:58;;;;;;;102.18;15.82;;;;;;;;;;4990301;28;20058;-67
2023/05/25 14:12:26;;;;;;;53.90;12.95;;;;;;;;;;4988878;28;20038;-68
2023/05/25 14:14:53;;;;;;;65.05;13.48;;;;;;;;;;4983323;28;20061;-71
2023/05/25 14:17:20;;;;;;;716.85;69.82;;;;;;;;;;4968367;28;20050;-67
2023/05/25 14:19:47;;;;;;;88.70;15.30;;;;;;;;;;4982476;28;20125;-66
2023/05/25 14:22:15;;;;;;;302.17;24.88;;;;;;;;;;4951541;28;20055;-70
2023/05/25 14:24:42;;;;;;;202.43;21.65;;;;;;;;;;4985425;28;20039;-68